createdAt,value
2019-04-30T00:00:03.154Z,32.55
2019-04-30T00:02:43.004Z,24.98
2019-04-30T00:05:17.338Z,28.38
2019-04-30T00:07:43.248Z,28.90
2019-04-30T00:10:12.421Z,30.62
2019-04-30T00:12:41.801Z,27.02
2019-04-30T00:15:17.877Z,33.75
2019-04-30T00:17:41.943Z,24.32
2019-04-30T00:20:11.270Z,25.08
2019-04-30T00:22:47.089Z,26.37
2019-04-30T00:25:11.457Z,26.75
2019-04-30T00:27:40.692Z,27.20
2019-04-30T00:30:09.941Z,23.05
2019-04-30T00:32:43.651Z,23.38
2019-04-30T00:35:11.780Z,22.52
2019-04-30T00:37:41.282Z,23.57
2019-04-30T00:40:10.527Z,22.20
2019-04-30T00:42:39.704Z,24.45
2019-04-30T00:45:10.251Z,25.80
2019-04-30T00:47:45.702Z,24.15
2019-04-30T00:50:10.922Z,23.73
2019-04-30T00:52:40.128Z,27.70
2019-04-30T00:55:09.412Z,24.07
2019-04-30T00:57:43.857Z,25.65
2019-04-30T01:00:11.114Z,23.62
2019-04-30T01:02:48.716Z,25.97
2019-04-30T01:05:25.526Z,24.27
2019-04-30T01:07:55.333Z,23.92
2019-04-30T01:10:28.223Z,23.15
2019-04-30T01:12:59.830Z,26.17
2019-04-30T01:15:26.510Z,28.50
2019-04-30T01:17:55.696Z,38.30
2019-04-30T01:20:31.069Z,34.40
2019-04-30T01:22:58.653Z,33.20
2019-04-30T01:25:28.829Z,23.75
2019-04-30T01:27:58.616Z,26.60
2019-04-30T01:30:28.473Z,22.22
2019-04-30T01:32:58.842Z,25.57
2019-04-30T01:35:32.596Z,22.95
2019-04-30T01:38:03.723Z,20.17
2019-04-30T01:40:30.547Z,19.57
2019-04-30T01:42:59.730Z,20.23
2019-04-30T01:45:31.571Z,23.32
2019-04-30T01:48:08.457Z,26.07
2019-04-30T01:50:33.828Z,19.42
2019-04-30T01:53:04.741Z,22.05
2019-04-30T01:55:50.701Z,25.15
2019-04-30T01:58:21.642Z,25.23
2019-04-30T02:00:59.385Z,21.40
2019-04-30T02:03:30.496Z,27.77
2019-04-30T02:05:59.757Z,32.75
2019-04-30T02:08:29.619Z,22.02
2019-04-30T02:10:59.406Z,26.65
2019-04-30T02:13:31.175Z,27.27
2019-04-30T02:15:59.696Z,22.98
2019-04-30T02:18:29.625Z,19.75
2019-04-30T02:20:59.574Z,17.42
2019-04-30T02:23:29.740Z,16.93
2019-04-30T02:25:59.949Z,19.35
2019-04-30T02:28:29.190Z,18.77
2019-04-30T02:31:00.322Z,20.08
2019-04-30T02:33:31.168Z,16.12
2019-04-30T02:36:14.174Z,14.35
2019-04-30T02:38:45.030Z,16.85
2019-04-30T02:41:14.650Z,17.52
2019-04-30T02:43:43.886Z,13.22
2019-04-30T02:46:13.180Z,13.60
2019-04-30T02:48:42.518Z,17.35
2019-04-30T02:51:11.736Z,21.77
2019-04-30T02:53:53.500Z,22.87
2019-04-30T02:56:26.803Z,21.07
2019-04-30T02:58:55.280Z,18.40
2019-04-30T03:01:24.602Z,56.70
2019-04-30T03:03:53.838Z,41.48
2019-04-30T03:06:23.689Z,28.27
2019-04-30T03:08:53.170Z,28.15
2019-04-30T03:11:22.457Z,30.70
2019-04-30T03:13:51.770Z,39.08
2019-04-30T03:16:22.587Z,39.55
2019-04-30T03:18:53.553Z,45.83
2019-04-30T03:21:42.688Z,59.50
2019-04-30T03:24:11.967Z,48.68
2019-04-30T03:26:41.112Z,35.52
2019-04-30T03:29:11.530Z,31.33
2019-04-30T03:31:43.801Z,30.40
2019-04-30T03:34:18.322Z,26.40
2019-04-30T03:36:42.875Z,23.38
2019-04-30T03:39:12.041Z,20.62
2019-04-30T03:41:41.807Z,23.85
2019-04-30T03:44:21.806Z,19.60
2019-04-30T03:46:42.114Z,19.40
2019-04-30T03:49:13.267Z,20.77
2019-04-30T03:51:42.290Z,21.65
2019-04-30T03:54:11.484Z,19.12
2019-04-30T03:56:41.841Z,20.70
2019-04-30T03:59:11.147Z,21.35
2019-04-30T04:01:42.140Z,32.40
2019-04-30T04:04:16.079Z,30.10
2019-04-30T04:07:01.820Z,23.02
2019-04-30T04:09:40.070Z,26.55
2019-04-30T04:12:21.272Z,25.35
2019-04-30T04:14:51.127Z,28.02
2019-04-30T04:17:21.157Z,22.77
2019-04-30T04:19:51.341Z,24.00
2019-04-30T04:22:20.938Z,24.77
2019-04-30T04:24:50.717Z,24.57
2019-04-30T04:27:20.433Z,23.25
2019-04-30T04:29:51.185Z,17.07
2019-04-30T04:32:24.128Z,23.55
2019-04-30T04:34:51.681Z,18.42
2019-04-30T04:37:20.854Z,19.17
2019-04-30T04:39:50.686Z,21.68
2019-04-30T04:42:20.052Z,21.45
2019-04-30T04:44:50.334Z,18.55
2019-04-30T04:47:20.456Z,15.05
2019-04-30T04:49:53.175Z,18.90
2019-04-30T04:52:21.982Z,18.98
2019-04-30T04:54:51.690Z,21.95
2019-04-30T04:57:22.610Z,19.40
2019-04-30T04:59:51.844Z,19.17
2019-04-30T05:02:34.800Z,14.47
2019-04-30T05:05:04.833Z,23.98
2019-04-30T05:07:34.089Z,16.62
2019-04-30T05:10:04.668Z,15.78
2019-04-30T05:12:33.896Z,17.55
2019-04-30T05:15:03.511Z,17.82
2019-04-30T05:17:32.877Z,18.80
2019-04-30T05:20:02.232Z,27.73
2019-04-30T05:22:31.406Z,21.30
2019-04-30T05:25:00.673Z,20.80
2019-04-30T05:27:30.351Z,18.77
2019-04-30T05:29:59.880Z,25.17
2019-04-30T05:32:29.388Z,16.27
2019-04-30T05:34:58.730Z,15.90
2019-04-30T05:37:28.431Z,15.98
2019-04-30T05:39:58.471Z,18.65
2019-04-30T05:42:28.936Z,16.95
2019-04-30T05:44:59.263Z,19.17
2019-04-30T05:47:29.134Z,20.88
2019-04-30T05:49:58.554Z,13.60
2019-04-30T05:52:29.516Z,21.02
2019-04-30T05:55:00.117Z,17.07
2019-04-30T05:57:29.581Z,17.07
2019-04-30T05:59:58.825Z,17.45
2019-04-30T06:02:33.112Z,17.50
2019-04-30T06:04:59.074Z,19.90
2019-04-30T06:07:29.949Z,17.17
2019-04-30T06:10:03.545Z,15.25
2019-04-30T06:12:39.154Z,14.98
2019-04-30T06:15:11.839Z,17.92
2019-04-30T06:17:42.591Z,16.37
2019-04-30T06:20:18.341Z,16.75
2019-04-30T06:22:43.368Z,14.70
2019-04-30T06:25:14.170Z,15.93
2019-04-30T06:27:43.442Z,17.17
2019-04-30T06:30:12.679Z,16.17
2019-04-30T06:32:42.199Z,16.70
2019-04-30T06:35:11.530Z,12.75
2019-04-30T06:37:40.781Z,16.93
2019-04-30T06:40:11.806Z,17.62
2019-04-30T06:42:41.189Z,17.10
2019-04-30T06:45:10.382Z,12.65
2019-04-30T06:47:39.615Z,13.98
2019-04-30T06:50:09.801Z,15.50
2019-04-30T06:52:39.136Z,15.50
2019-04-30T06:55:09.453Z,16.32
2019-04-30T06:57:38.737Z,13.95
2019-04-30T07:00:09.860Z,13.10
2019-04-30T07:02:39.389Z,14.77
2019-04-30T07:05:10.241Z,14.05
2019-04-30T07:07:41.762Z,15.68
2019-04-30T07:10:21.740Z,18.35
2019-04-30T07:12:55.549Z,15.70
2019-04-30T07:15:24.801Z,15.43
2019-04-30T07:17:54.031Z,15.60
2019-04-30T07:20:23.212Z,16.57
2019-04-30T07:23:00.291Z,10.13
2019-04-30T07:25:23.407Z,12.68
2019-04-30T07:27:52.652Z,14.60
2019-04-30T07:30:21.896Z,16.77
2019-04-30T07:32:51.186Z,15.53
2019-04-30T07:35:20.359Z,15.32
2019-04-30T07:37:49.938Z,19.12
2019-04-30T07:40:19.226Z,20.35
2019-04-30T07:42:49.396Z,14.35
2019-04-30T07:45:19.424Z,15.23
2019-04-30T07:47:49.419Z,13.05
2019-04-30T07:50:21.430Z,15.98
2019-04-30T07:53:01.746Z,12.75
2019-04-30T07:55:20.636Z,14.40
2019-04-30T07:57:50.725Z,13.83
2019-04-30T08:00:20.115Z,13.68
2019-04-30T08:03:02.895Z,17.42
2019-04-30T08:05:33.730Z,12.43
2019-04-30T08:08:20.612Z,15.25
2019-04-30T08:10:34.004Z,15.20
2019-04-30T08:13:10.176Z,18.37
2019-04-30T08:15:34.324Z,11.93
2019-04-30T08:18:05.911Z,12.60
2019-04-30T08:20:34.607Z,10.15
2019-04-30T08:23:15.636Z,8.78
2019-04-30T08:25:34.754Z,12.30
2019-04-30T08:28:03.994Z,18.85
2019-04-30T08:30:33.260Z,9.50
2019-04-30T08:33:02.438Z,12.70
2019-04-30T08:35:31.642Z,13.18
2019-04-30T08:38:00.884Z,16.45
2019-04-30T08:40:30.184Z,13.30
2019-04-30T08:42:59.598Z,16.05
2019-04-30T08:45:31.479Z,9.70
2019-04-30T08:47:59.739Z,15.23
2019-04-30T08:50:29.879Z,12.58
2019-04-30T08:53:00.185Z,14.68
2019-04-30T08:55:30.405Z,13.95
2019-04-30T08:58:09.407Z,11.80
2019-04-30T09:00:30.828Z,12.90
2019-04-30T09:03:00.058Z,18.23
2019-04-30T09:05:38.538Z,12.73
2019-04-30T09:08:09.592Z,17.70
2019-04-30T09:10:39.381Z,13.20
2019-04-30T09:13:09.163Z,16.62
2019-04-30T09:15:40.095Z,11.60
2019-04-30T09:18:12.405Z,8.53
2019-04-30T09:20:40.988Z,11.68
2019-04-30T09:23:11.262Z,15.68
2019-04-30T09:25:40.586Z,16.27
2019-04-30T09:28:09.815Z,13.30
2019-04-30T09:30:39.140Z,15.23
2019-04-30T09:33:10.977Z,13.58
2019-04-30T09:35:39.564Z,16.60
2019-04-30T09:38:09.233Z,12.30
2019-04-30T09:40:41.578Z,15.85
2019-04-30T09:43:09.649Z,12.20
2019-04-30T09:45:38.889Z,10.98
2019-04-30T09:48:09.421Z,13.85
2019-04-30T09:50:39.323Z,13.83
2019-04-30T09:53:10.043Z,13.10
2019-04-30T09:55:40.593Z,10.05
2019-04-30T09:58:17.228Z,11.83
2019-04-30T10:00:40.949Z,12.07
2019-04-30T10:03:11.261Z,12.58
2019-04-30T10:05:41.040Z,13.15
2019-04-30T10:08:10.290Z,13.83
2019-04-30T10:10:41.104Z,12.63
2019-04-30T10:13:10.387Z,13.78
2019-04-30T10:15:43.969Z,13.88
2019-04-30T10:18:13.418Z,10.68
2019-04-30T10:20:43.953Z,17.27
2019-04-30T10:23:13.123Z,16.57
2019-04-30T10:25:42.369Z,13.55
2019-04-30T10:28:11.585Z,12.40
2019-04-30T10:30:40.884Z,11.90
2019-04-30T10:33:10.200Z,11.68
2019-04-30T10:35:39.387Z,15.68
2019-04-30T10:38:09.845Z,12.07
2019-04-30T10:40:39.298Z,12.63
2019-04-30T10:43:09.102Z,12.28
2019-04-30T10:45:38.950Z,14.85
2019-04-30T10:48:08.288Z,12.47
2019-04-30T10:50:40.741Z,14.73
2019-04-30T10:53:09.182Z,13.18
2019-04-30T10:55:38.903Z,18.02
2019-04-30T10:58:08.103Z,14.65
2019-04-30T11:00:40.139Z,14.43
2019-04-30T11:03:19.127Z,14.18
2019-04-30T11:05:41.307Z,14.35
2019-04-30T11:08:10.823Z,12.18
2019-04-30T11:10:40.096Z,14.33
2019-04-30T11:13:09.289Z,16.37
2019-04-30T11:15:39.440Z,12.93
2019-04-30T11:18:09.030Z,13.25
2019-04-30T11:20:39.713Z,14.33
2019-04-30T11:23:14.751Z,18.40
2019-04-30T11:25:41.563Z,14.30
2019-04-30T11:28:11.899Z,12.07
2019-04-30T11:30:41.878Z,15.83
2019-04-30T11:33:11.528Z,15.13
2019-04-30T11:35:41.023Z,18.37
2019-04-30T11:38:10.212Z,16.52
2019-04-30T11:40:40.056Z,17.07
2019-04-30T11:43:09.593Z,11.28
2019-04-30T11:45:54.251Z,14.58
2019-04-30T11:48:23.525Z,10.10
2019-04-30T11:50:52.774Z,11.45
2019-04-30T11:53:27.619Z,12.75
2019-04-30T11:55:53.026Z,14.13
2019-04-30T11:58:22.269Z,15.98
2019-04-30T12:00:51.544Z,12.05
2019-04-30T12:03:20.860Z,16.12
2019-04-30T12:05:50.037Z,17.02
2019-04-30T12:08:20.847Z,15.48
2019-04-30T12:10:54.274Z,15.10
2019-04-30T12:13:24.647Z,13.48
2019-04-30T12:15:54.355Z,16.10
2019-04-30T12:18:23.556Z,16.90
2019-04-30T12:20:52.854Z,18.57
2019-04-30T12:23:22.143Z,13.00
2019-04-30T12:25:51.319Z,16.48
2019-04-30T12:28:20.517Z,17.67
2019-04-30T12:30:49.756Z,14.78
2019-04-30T12:33:19.269Z,15.75
2019-04-30T12:35:49.170Z,15.00
2019-04-30T12:38:19.775Z,16.80
2019-04-30T12:40:49.043Z,12.95
2019-04-30T12:43:18.209Z,14.28
2019-04-30T12:45:56.557Z,14.07
2019-04-30T12:48:20.364Z,10.40
2019-04-30T12:50:53.972Z,12.13
2019-04-30T12:53:24.787Z,16.02
2019-04-30T12:56:12.043Z,11.10
2019-04-30T12:58:41.328Z,15.20
2019-04-30T13:01:10.650Z,17.70
2019-04-30T13:03:40.032Z,13.50
2019-04-30T13:06:11.730Z,14.70
2019-04-30T13:08:41.668Z,14.38
2019-04-30T13:11:12.969Z,13.80
2019-04-30T13:13:43.037Z,16.65
2019-04-30T13:16:12.594Z,16.50
2019-04-30T13:18:41.782Z,16.15
2019-04-30T13:21:11.029Z,14.43
2019-04-30T13:23:40.246Z,14.43
2019-04-30T13:26:09.415Z,15.03
2019-04-30T13:28:45.903Z,21.62
2019-04-30T13:31:15.148Z,12.07
2019-04-30T13:33:46.783Z,19.02
2019-04-30T13:36:19.720Z,21.20
2019-04-30T13:38:56.354Z,14.87
2019-04-30T13:41:32.768Z,17.50
2019-04-30T13:44:02.808Z,16.50
2019-04-30T13:46:32.038Z,17.85
2019-04-30T13:49:01.262Z,16.07
2019-04-30T13:51:30.504Z,18.60
2019-04-30T13:53:59.703Z,16.32
2019-04-30T13:56:29.039Z,14.50
2019-04-30T13:58:58.281Z,19.00
2019-04-30T14:01:29.410Z,16.00
2019-04-30T14:04:15.303Z,20.40
2019-04-30T14:06:48.971Z,16.12
2019-04-30T14:09:22.382Z,9.38
2019-04-30T14:11:51.633Z,16.82
2019-04-30T14:14:20.956Z,14.10
2019-04-30T14:16:50.336Z,15.78
2019-04-30T14:19:19.659Z,20.25
2019-04-30T14:21:49.400Z,16.77
2019-04-30T14:24:19.341Z,15.03
2019-04-30T14:26:49.143Z,17.07
2019-04-30T14:29:18.418Z,13.18
2019-04-30T14:31:48.779Z,14.05
2019-04-30T14:34:18.648Z,15.83
2019-04-30T14:36:49.276Z,16.85
2019-04-30T14:39:20.338Z,18.65
2019-04-30T14:41:52.069Z,19.50
2019-04-30T14:44:23.000Z,20.12
2019-04-30T14:47:00.613Z,19.90
2019-04-30T14:49:41.410Z,19.55
2019-04-30T14:52:10.817Z,16.00
2019-04-30T14:54:58.797Z,15.38
2019-04-30T14:57:42.262Z,14.47
2019-04-30T15:00:19.231Z,15.15
2019-04-30T15:02:56.213Z,12.33
2019-04-30T15:05:25.391Z,17.20
2019-04-30T15:07:54.624Z,18.85
2019-04-30T15:10:23.862Z,13.88
2019-04-30T15:12:53.116Z,19.95
2019-04-30T15:15:22.395Z,16.07
2019-04-30T15:17:51.726Z,18.02
2019-04-30T15:20:20.930Z,17.77
2019-04-30T15:22:54.491Z,16.80
2019-04-30T15:25:23.849Z,19.30
2019-04-30T15:27:53.146Z,16.05
2019-04-30T15:30:22.613Z,15.68
2019-04-30T15:32:54.847Z,18.90
2019-04-30T15:37:54.587Z,18.82
2019-04-30T15:40:24.004Z,21.55
2019-04-30T15:42:55.258Z,14.53
2019-04-30T15:45:24.588Z,21.45
2019-04-30T15:47:53.990Z,18.00
2019-04-30T15:50:23.482Z,18.70
2019-04-30T15:52:52.925Z,18.82
2019-04-30T15:55:23.593Z,14.68
2019-04-30T15:58:10.675Z,17.02
2019-04-30T16:00:40.196Z,13.98
2019-04-30T16:03:12.113Z,16.70
2019-04-30T16:05:44.615Z,16.55
2019-04-30T16:08:24.395Z,18.73
2019-04-30T16:11:01.254Z,17.17
2019-04-30T16:13:34.829Z,18.15
2019-04-30T16:16:04.171Z,15.93
2019-04-30T16:18:50.534Z,17.77
2019-04-30T16:21:20.051Z,19.65
2019-04-30T16:23:49.456Z,20.15
2019-04-30T16:26:18.896Z,21.65
2019-04-30T16:28:49.519Z,18.55
2019-04-30T16:31:20.565Z,16.90
2019-04-30T16:33:51.111Z,18.60
2019-04-30T16:36:20.617Z,60.25
2019-04-30T16:38:50.019Z,74.82
2019-04-30T16:41:31.057Z,41.50
2019-04-30T16:43:50.475Z,28.47
2019-04-30T16:46:19.774Z,26.52
2019-04-30T16:48:49.421Z,20.90
2019-04-30T16:51:18.911Z,20.72
2019-04-30T16:53:48.729Z,25.35
2019-04-30T16:56:18.646Z,19.73
2019-04-30T16:59:01.620Z,25.65
2019-04-30T17:01:35.936Z,26.68
2019-04-30T17:04:09.022Z,24.15
2019-04-30T17:06:49.301Z,26.60
2019-04-30T17:09:32.597Z,26.68
2019-04-30T17:12:08.495Z,33.63
2019-04-30T17:14:39.263Z,34.53
2019-04-30T17:17:08.528Z,32.53
2019-04-30T17:19:39.331Z,38.45
2019-04-30T17:22:08.772Z,52.80
2019-04-30T17:24:39.344Z,55.60
2019-04-30T17:27:18.813Z,45.88
2019-04-30T17:29:39.938Z,36.15
2019-04-30T17:32:10.633Z,41.80
2019-04-30T17:34:40.145Z,45.70
2019-04-30T17:37:09.461Z,45.15
2019-04-30T17:39:41.017Z,38.20
2019-04-30T17:42:09.884Z,36.75
2019-04-30T17:44:39.758Z,38.65
2019-04-30T17:47:09.285Z,34.38
2019-04-30T17:49:38.459Z,35.83
2019-04-30T17:52:08.817Z,29.50
2019-04-30T17:54:38.427Z,32.28
2019-04-30T17:57:10.426Z,29.45
2019-04-30T17:59:38.741Z,30.52
2019-04-30T18:02:09.650Z,35.33
2019-04-30T18:04:38.984Z,41.88
2019-04-30T18:07:09.903Z,47.08
2019-04-30T18:09:39.300Z,36.48
2019-04-30T18:12:09.379Z,47.88
2019-04-30T18:14:39.611Z,88.27
2019-04-30T18:17:09.367Z,242.20
2019-04-30T18:19:43.438Z,346.18
2019-04-30T18:22:16.857Z,245.75
2019-04-30T18:24:49.291Z,192.62
2019-04-30T18:27:26.365Z,164.18
2019-04-30T18:29:55.998Z,164.30
2019-04-30T18:32:29.477Z,145.87
2019-04-30T18:34:59.138Z,110.97
2019-04-30T18:37:28.768Z,129.32
2019-04-30T18:39:59.989Z,94.87
2019-04-30T18:42:29.283Z,113.77
2019-04-30T18:44:58.597Z,100.20
2019-04-30T18:47:28.174Z,122.92
2019-04-30T18:49:59.414Z,70.42
2019-04-30T18:52:29.043Z,75.37
2019-04-30T18:54:59.495Z,99.47
2019-04-30T18:57:28.947Z,66.47
2019-04-30T18:59:59.137Z,88.85
2019-04-30T19:02:29.547Z,78.65
2019-04-30T19:04:59.524Z,74.85
2019-04-30T19:07:36.772Z,78.70
2019-04-30T19:10:17.713Z,77.55
2019-04-30T19:12:51.550Z,53.00
2019-04-30T19:16:11.390Z,48.60
2019-04-30T19:18:11.611Z,63.05
2019-04-30T19:20:51.489Z,152.97
2019-04-30T19:23:20.918Z,131.30
2019-04-30T19:25:50.313Z,125.05
2019-04-30T19:28:19.511Z,139.92
2019-04-30T19:30:55.838Z,110.37
2019-04-30T19:33:19.826Z,75.15
2019-04-30T19:35:50.621Z,75.78
2019-04-30T19:38:20.035Z,119.02
2019-04-30T19:40:49.509Z,127.42
2019-04-30T19:43:18.931Z,123.13
2019-04-30T19:45:49.022Z,114.65
2019-04-30T19:48:19.308Z,92.60
2019-04-30T19:50:48.973Z,73.97
2019-04-30T19:53:21.987Z,68.60
2019-04-30T19:55:49.500Z,99.97
2019-04-30T19:58:26.163Z,67.47
2019-04-30T20:00:50.003Z,64.03
2019-04-30T20:03:19.809Z,49.45
2019-04-30T20:05:49.241Z,46.15
2019-04-30T20:08:19.868Z,42.80
2019-04-30T20:10:49.672Z,265.55
2019-04-30T20:13:31.317Z,113.32
2019-04-30T20:15:50.212Z,81.00
2019-04-30T20:18:20.439Z,58.33
2019-04-30T20:20:52.020Z,64.17
2019-04-30T20:23:21.505Z,59.08
2019-04-30T20:25:50.937Z,67.42
2019-04-30T20:28:20.288Z,62.10
2019-04-30T20:30:49.846Z,65.05
2019-04-30T20:33:19.213Z,51.18
2019-04-30T20:35:48.927Z,40.35
2019-04-30T20:38:29.240Z,35.48
2019-04-30T20:41:02.811Z,37.58
2019-04-30T20:43:31.261Z,65.97
2019-04-30T20:46:01.080Z,90.53
2019-04-30T20:48:30.542Z,73.57
2019-04-30T20:51:01.381Z,48.45
2019-04-30T20:53:30.920Z,36.13
2019-04-30T20:56:00.396Z,34.45
2019-04-30T20:58:29.704Z,34.25
2019-04-30T21:01:04.133Z,29.27
2019-04-30T21:03:30.103Z,31.62
2019-04-30T21:06:00.662Z,149.42
2019-04-30T21:08:29.980Z,158.25
2019-04-30T21:10:59.436Z,92.90
2019-04-30T21:13:29.527Z,82.17
2019-04-30T21:15:59.472Z,45.05
2019-04-30T21:18:32.140Z,40.38
2019-04-30T21:21:00.182Z,44.27
2019-04-30T21:23:29.525Z,42.50
2019-04-30T21:25:59.124Z,49.88
2019-04-30T21:28:29.696Z,85.85
2019-04-30T21:31:00.782Z,174.10
2019-04-30T21:33:43.739Z,85.70
2019-04-30T21:36:14.716Z,60.00
2019-04-30T21:38:43.966Z,63.52
2019-04-30T21:41:13.287Z,55.35
2019-04-30T21:43:42.608Z,66.92
2019-04-30T21:46:12.051Z,53.20
2019-04-30T21:48:41.309Z,59.08
2019-04-30T21:51:10.732Z,40.35
2019-04-30T21:53:40.058Z,39.48
